createdAt,value
2022-07-29T00:00:06.064Z,71.21
2022-07-29T00:03:09.725Z,71.39
2022-07-29T00:06:15.138Z,70.99
2022-07-29T00:09:18.796Z,71.16
2022-07-29T00:12:25.293Z,71.17
2022-07-29T00:15:30.160Z,71.26
2022-07-29T00:18:34.252Z,71.24
2022-07-29T00:21:39.242Z,71.33
2022-07-29T00:24:43.070Z,71.26
2022-07-29T00:27:47.247Z,71.29
2022-07-29T00:30:50.908Z,71.47
2022-07-29T00:33:54.828Z,71.58
2022-07-29T00:36:59.272Z,71.41
2022-07-29T00:40:03.203Z,71.63
2022-07-29T00:43:07.019Z,71.59
2022-07-29T00:46:10.774Z,71.76
2022-07-29T00:49:15.213Z,71.77
2022-07-29T00:52:20.483Z,71.85
2022-07-29T00:55:25.227Z,71.88
2022-07-29T00:58:29.767Z,71.95
2022-07-29T01:01:33.493Z,71.92
2022-07-29T01:04:37.458Z,71.90
2022-07-29T01:07:43.681Z,71.97
2022-07-29T01:10:49.351Z,72.03
2022-07-29T01:13:54.826Z,72.01
2022-07-29T01:17:16.192Z,71.75
2022-07-29T01:20:33.503Z,71.71
2022-07-29T01:24:09.674Z,71.91
2022-07-29T01:27:40.675Z,71.68
2022-07-29T01:30:52.843Z,71.67
2022-07-29T01:34:05.022Z,71.62
2022-07-29T01:37:17.952Z,71.57
2022-07-29T01:40:26.466Z,71.60
2022-07-29T01:43:40.239Z,71.52
2022-07-29T01:46:54.692Z,71.31
2022-07-29T01:50:02.385Z,71.32
2022-07-29T01:53:10.941Z,71.31
2022-07-29T01:56:18.395Z,70.83
2022-07-29T01:59:24.362Z,70.86
2022-07-29T02:02:34.270Z,70.81
2022-07-29T02:05:41.169Z,70.83
2022-07-29T02:08:47.872Z,70.75
2022-07-29T02:11:56.291Z,70.77
2022-07-29T02:15:05.787Z,70.65
2022-07-29T02:18:17.616Z,70.60
2022-07-29T02:21:27.454Z,70.54
2022-07-29T02:24:32.993Z,70.45
2022-07-29T02:27:39.948Z,70.45
2022-07-29T02:30:46.547Z,70.55
2022-07-29T02:33:53.476Z,70.33
2022-07-29T02:36:58.809Z,70.26
2022-07-29T02:40:03.664Z,70.28
2022-07-29T02:43:10.003Z,70.23
2022-07-29T02:46:28.870Z,70.17
2022-07-29T02:49:40.794Z,70.08
2022-07-29T02:52:48.827Z,70.04
2022-07-29T02:55:59.367Z,70.27
2022-07-29T02:59:08.199Z,70.25
2022-07-29T03:02:15.566Z,70.14
2022-07-29T03:05:23.612Z,70.21
2022-07-29T03:08:29.520Z,70.01
2022-07-29T03:11:41.442Z,70.13
2022-07-29T03:14:55.279Z,69.88
2022-07-29T03:18:00.903Z,69.97
2022-07-29T03:21:06.540Z,70.03
2022-07-29T03:24:10.929Z,70.13
2022-07-29T03:27:14.991Z,69.85
2022-07-29T03:30:21.811Z,69.95
2022-07-29T03:33:26.133Z,69.97
2022-07-29T03:36:31.081Z,70.14
2022-07-29T03:39:42.895Z,69.73
2022-07-29T03:42:48.953Z,69.89
2022-07-29T03:45:57.200Z,69.63
2022-07-29T03:49:05.291Z,69.87
2022-07-29T03:52:11.155Z,69.89
2022-07-29T03:55:15.764Z,69.67
2022-07-29T03:58:22.052Z,69.94
2022-07-29T04:01:26.904Z,69.93
2022-07-29T04:04:30.758Z,70.11
2022-07-29T04:07:35.798Z,70.17
2022-07-29T04:10:40.877Z,69.99
2022-07-29T04:13:44.520Z,69.91
2022-07-29T04:16:48.302Z,69.91
2022-07-29T04:19:51.881Z,70.18
2022-07-29T04:22:56.987Z,69.96
2022-07-29T04:26:01.416Z,69.83
2022-07-29T04:29:05.101Z,69.93
2022-07-29T04:32:09.179Z,70.06
2022-07-29T04:35:12.840Z,69.91
2022-07-29T04:38:17.913Z,69.94
2022-07-29T04:41:21.565Z,69.85
2022-07-29T04:44:28.423Z,70.15
2022-07-29T04:47:32.540Z,69.77
2022-07-29T04:50:36.243Z,70.11
2022-07-29T04:53:41.324Z,70.23
2022-07-29T04:56:44.969Z,70.12
2022-07-29T04:59:49.677Z,70.63
2022-07-29T05:02:53.363Z,70.64
2022-07-29T05:05:58.124Z,70.87
2022-07-29T05:09:03.125Z,70.89
2022-07-29T05:12:07.956Z,70.96
2022-07-29T05:15:12.514Z,70.69
2022-07-29T05:18:16.505Z,70.70
2022-07-29T05:21:20.090Z,70.32
2022-07-29T05:24:25.471Z,70.01
2022-07-29T05:27:29.052Z,70.28
2022-07-29T05:30:32.761Z,70.05
2022-07-29T05:33:37.173Z,69.75
2022-07-29T05:36:40.895Z,69.87
2022-07-29T05:39:48.918Z,69.23
2022-07-29T05:42:54.496Z,68.72
2022-07-29T05:45:58.934Z,68.29
2022-07-29T05:49:03.946Z,68.34
2022-07-29T05:52:07.682Z,68.20
2022-07-29T05:55:13.211Z,67.75
2022-07-29T05:58:16.961Z,67.80
2022-07-29T06:01:21.248Z,67.67
2022-07-29T06:04:25.022Z,67.70
2022-07-29T06:07:28.684Z,67.20
2022-07-29T06:10:33.737Z,67.24
2022-07-29T06:13:37.469Z,67.25
2022-07-29T06:16:41.102Z,67.02
2022-07-29T06:19:45.042Z,66.87
2022-07-29T06:22:48.600Z,66.90
2022-07-29T06:25:53.944Z,66.57
2022-07-29T06:28:57.546Z,66.40
2022-07-29T06:32:01.215Z,66.04
2022-07-29T06:35:36.177Z,66.39
2022-07-29T06:38:30.668Z,65.82
2022-07-29T06:41:38.890Z,65.21
2022-07-29T06:44:42.920Z,65.27
2022-07-29T06:47:46.645Z,65.36
2022-07-29T06:50:50.439Z,64.84
2022-07-29T06:54:00.463Z,64.42
2022-07-29T06:57:08.212Z,64.37
2022-07-29T07:00:13.731Z,64.21
2022-07-29T07:03:17.999Z,64.38
2022-07-29T07:06:21.668Z,63.79
2022-07-29T07:09:25.360Z,63.18
2022-07-29T07:12:45.404Z,63.03
2022-07-29T07:15:49.884Z,62.52
2022-07-29T07:18:53.577Z,61.25
2022-07-29T07:21:57.339Z,60.59
2022-07-29T07:25:01.109Z,59.74
2022-07-29T07:28:06.628Z,59.07
2022-07-29T07:31:10.551Z,58.34
2022-07-29T07:34:15.681Z,56.96
2022-07-29T07:37:20.433Z,55.45
2022-07-29T07:40:24.665Z,54.53
2022-07-29T07:43:29.719Z,53.75
2022-07-29T07:46:33.371Z,51.68
2022-07-29T07:49:37.055Z,50.63
2022-07-29T07:52:51.078Z,50.60
2022-07-29T07:56:11.772Z,51.56
2022-07-29T07:59:18.211Z,51.36
2022-07-29T08:02:22.046Z,51.70
2022-07-29T08:05:26.140Z,52.14
2022-07-29T08:08:29.833Z,52.26
2022-07-29T08:11:34.111Z,52.58
2022-07-29T08:14:42.744Z,52.76
2022-07-29T08:17:46.996Z,52.96
2022-07-29T08:20:50.689Z,52.86
2022-07-29T08:24:14.786Z,52.44
2022-07-29T08:27:41.756Z,52.11
2022-07-29T08:30:43.980Z,50.28
2022-07-29T08:33:47.744Z,47.88
2022-07-29T08:36:51.490Z,46.30
2022-07-29T08:39:55.072Z,44.81
2022-07-29T08:42:59.064Z,42.89
2022-07-29T08:46:04.311Z,42.51
2022-07-29T08:49:08.085Z,41.94
2022-07-29T08:52:14.156Z,42.19
2022-07-29T08:55:21.228Z,42.82
2022-07-29T08:58:26.596Z,42.16
2022-07-29T09:01:36.779Z,42.15
2022-07-29T09:04:47.039Z,43.12
2022-07-29T09:07:51.143Z,41.75
2022-07-29T09:10:56.708Z,40.55
2022-07-29T09:14:00.482Z,41.45
2022-07-29T09:17:06.836Z,40.85
2022-07-29T09:20:13.975Z,39.28
2022-07-29T09:23:23.091Z,39.95
2022-07-29T09:26:31.797Z,38.57
2022-07-29T09:29:36.422Z,38.19
2022-07-29T09:33:02.235Z,39.18
2022-07-29T09:36:08.546Z,40.52
2022-07-29T09:39:12.770Z,40.08
2022-07-29T09:42:30.279Z,40.23
2022-07-29T09:45:38.986Z,39.88
2022-07-29T09:48:44.029Z,39.72
2022-07-29T09:51:47.849Z,41.54
2022-07-29T09:54:51.769Z,41.90
2022-07-29T09:57:55.480Z,41.93
2022-07-29T10:00:59.475Z,41.63
2022-07-29T10:04:05.509Z,42.29
2022-07-29T10:07:09.243Z,43.29
2022-07-29T10:10:13.384Z,42.40
2022-07-29T10:13:17.378Z,41.99
2022-07-29T10:16:21.114Z,41.96
2022-07-29T10:19:27.106Z,41.29
2022-07-29T10:22:51.930Z,40.72
2022-07-29T10:25:55.170Z,40.39
2022-07-29T10:28:58.816Z,40.41
2022-07-29T10:32:36.640Z,40.01
2022-07-29T10:36:12.534Z,39.04
2022-07-29T10:39:44.438Z,39.94
2022-07-29T10:42:56.253Z,39.90
2022-07-29T10:46:03.042Z,40.65
2022-07-29T10:49:16.168Z,39.28
2022-07-29T10:52:26.639Z,39.93
2022-07-29T10:55:37.761Z,40.42
2022-07-29T10:58:42.083Z,40.17
2022-07-29T11:02:27.977Z,40.80
2022-07-29T11:05:22.243Z,38.96
2022-07-29T11:08:28.431Z,38.63
2022-07-29T11:11:37.732Z,38.47
2022-07-29T11:15:02.718Z,37.98
2022-07-29T11:21:51.675Z,36.44
2022-07-29T11:25:42.913Z,36.95
2022-07-29T11:29:04.792Z,36.58
2022-07-29T11:32:15.867Z,36.94
2022-07-29T11:35:38.260Z,36.30
2022-07-29T11:38:43.991Z,36.05
2022-07-29T11:41:49.308Z,35.75
2022-07-29T11:44:57.877Z,34.67
2022-07-29T11:48:29.335Z,34.27
2022-07-29T11:51:32.698Z,34.79
2022-07-29T11:54:58.291Z,35.17
2022-07-29T11:58:05.597Z,35.37
2022-07-29T12:01:09.333Z,33.97
2022-07-29T12:04:12.951Z,33.37
2022-07-29T12:07:17.807Z,33.25
2022-07-29T12:10:29.824Z,33.45
2022-07-29T12:13:41.786Z,33.03
2022-07-29T12:16:45.495Z,33.69
2022-07-29T12:19:50.960Z,32.55
2022-07-29T12:22:55.870Z,33.18
2022-07-29T12:26:01.475Z,32.98
2022-07-29T12:29:11.335Z,33.04
2022-07-29T12:32:19.778Z,33.83
2022-07-29T12:35:24.221Z,33.89
2022-07-29T12:38:28.704Z,33.40
2022-07-29T12:41:33.310Z,33.53
2022-07-29T12:44:52.682Z,33.69
2022-07-29T12:47:56.402Z,33.12
2022-07-29T12:51:04.257Z,33.12
2022-07-29T12:54:12.276Z,33.06
2022-07-29T12:57:20.289Z,32.61
2022-07-29T13:00:26.939Z,33.49
2022-07-29T13:03:35.726Z,33.83
2022-07-29T13:06:45.695Z,33.58
2022-07-29T13:09:49.506Z,33.27
2022-07-29T13:13:09.193Z,32.45
2022-07-29T13:16:14.243Z,32.90
2022-07-29T13:19:17.838Z,32.38
2022-07-29T13:22:24.408Z,32.78
2022-07-29T13:25:31.047Z,32.74
2022-07-29T13:28:35.254Z,33.53
2022-07-29T13:31:40.255Z,34.09
2022-07-29T13:34:43.868Z,34.82
2022-07-29T13:37:48.236Z,35.58
2022-07-29T13:40:51.954Z,34.82
2022-07-29T13:43:55.547Z,34.85
2022-07-29T13:47:00.996Z,35.72
2022-07-29T13:50:07.426Z,35.03
2022-07-29T13:53:11.106Z,35.44
2022-07-29T13:56:21.728Z,35.72
2022-07-29T13:59:25.316Z,34.74
2022-07-29T14:02:31.369Z,34.22
2022-07-29T14:05:34.991Z,35.04
2022-07-29T14:08:38.692Z,35.36
2022-07-29T14:11:42.339Z,35.39
2022-07-29T14:14:47.327Z,34.74
2022-07-29T14:17:52.520Z,35.07
2022-07-29T14:20:56.231Z,34.84
2022-07-29T14:23:59.839Z,35.24
2022-07-29T14:27:03.915Z,35.70
2022-07-29T14:30:09.791Z,35.91
2022-07-29T14:33:15.252Z,36.31
2022-07-29T14:36:18.876Z,35.64
2022-07-29T14:39:22.483Z,35.61
2022-07-29T14:42:26.107Z,35.68
2022-07-29T14:45:30.370Z,35.97
2022-07-29T14:48:36.100Z,36.21
2022-07-29T14:51:39.727Z,36.45
2022-07-29T14:54:43.980Z,36.56
2022-07-29T14:57:47.557Z,36.22
2022-07-29T15:00:51.380Z,36.14
2022-07-29T15:03:59.703Z,36.29
2022-07-29T15:07:03.564Z,36.10
2022-07-29T15:10:08.395Z,36.49
2022-07-29T15:13:12.036Z,36.17
2022-07-29T15:16:15.774Z,36.81
2022-07-29T15:19:20.871Z,36.91
2022-07-29T15:22:24.576Z,36.32
2022-07-29T15:25:28.616Z,36.59
2022-07-29T15:28:32.403Z,36.80
2022-07-29T15:31:36.231Z,36.52
2022-07-29T15:34:41.398Z,36.84
2022-07-29T15:37:48.840Z,37.45
2022-07-29T15:40:53.183Z,37.74
2022-07-29T15:43:56.843Z,38.26
2022-07-29T15:47:07.321Z,38.71
2022-07-29T15:50:15.934Z,38.31
2022-07-29T15:53:19.607Z,38.72
2022-07-29T15:56:23.496Z,38.86
2022-07-29T15:59:28.582Z,39.51
2022-07-29T16:02:32.207Z,39.77
2022-07-29T16:05:37.657Z,39.82
2022-07-29T16:08:41.342Z,40.01
2022-07-29T16:11:46.452Z,40.23
2022-07-29T16:14:52.082Z,40.77
2022-07-29T16:17:55.829Z,41.51
2022-07-29T16:21:00.812Z,41.99
2022-07-29T16:24:05.871Z,42.78
2022-07-29T16:27:09.495Z,43.34
2022-07-29T16:30:13.876Z,43.42
2022-07-29T16:33:17.823Z,43.51
2022-07-29T16:36:23.747Z,44.04
2022-07-29T16:39:36.796Z,44.50
2022-07-29T16:42:48.175Z,44.61
2022-07-29T16:45:52.012Z,45.07
2022-07-29T16:48:56.393Z,45.42
2022-07-29T16:52:01.499Z,46.08
2022-07-29T16:55:06.499Z,46.42
2022-07-29T16:58:10.938Z,46.93
2022-07-29T17:01:14.913Z,46.74
2022-07-29T17:04:18.648Z,46.75
2022-07-29T17:07:23.803Z,46.58
2022-07-29T17:10:28.474Z,46.30
2022-07-29T17:13:32.212Z,45.99
2022-07-29T17:16:36.172Z,47.72
2022-07-29T17:19:40.094Z,49.32
2022-07-29T17:22:45.320Z,51.43
2022-07-29T17:25:49.234Z,53.12
2022-07-29T17:28:53.633Z,55.07
2022-07-29T17:31:57.815Z,56.97
2022-07-29T17:35:01.445Z,59.76
2022-07-29T17:38:06.533Z,60.95
2022-07-29T17:41:10.219Z,62.57
2022-07-29T17:44:14.203Z,63.83
2022-07-29T17:47:17.836Z,64.14
2022-07-29T17:50:21.498Z,64.88
2022-07-29T17:53:26.559Z,65.23
2022-07-29T17:56:30.220Z,65.23
2022-07-29T17:59:33.872Z,65.35
2022-07-29T18:02:38.082Z,65.15
2022-07-29T18:05:42.084Z,65.21
2022-07-29T18:08:47.636Z,64.76
2022-07-29T18:11:51.722Z,64.50
2022-07-29T18:14:55.391Z,64.06
2022-07-29T18:17:58.987Z,63.85
2022-07-29T18:21:02.911Z,63.05
2022-07-29T18:24:09.523Z,62.62
2022-07-29T18:27:13.358Z,62.34
2022-07-29T18:30:17.296Z,62.67
2022-07-29T18:33:22.397Z,62.62
2022-07-29T18:36:26.338Z,62.35
2022-07-29T18:39:31.350Z,62.13
2022-07-29T18:42:35.118Z,62.18
2022-07-29T18:45:39.606Z,61.96
2022-07-29T18:48:43.356Z,61.99
2022-07-29T18:51:47.025Z,61.45
2022-07-29T18:54:52.302Z,61.58
2022-07-29T18:57:57.441Z,61.61
2022-07-29T19:01:02.430Z,61.28
2022-07-29T19:04:06.335Z,61.40
2022-07-29T19:07:10.114Z,61.62
2022-07-29T19:10:15.754Z,61.87
2022-07-29T19:13:19.365Z,61.86
2022-07-29T19:16:22.999Z,61.74
2022-07-29T19:19:26.635Z,62.26
2022-07-29T19:22:30.303Z,62.28
2022-07-29T19:25:35.877Z,62.43
2022-07-29T19:28:39.611Z,62.66
2022-07-29T19:31:44.348Z,62.83
2022-07-29T19:35:08.140Z,62.90
2022-07-29T19:38:12.009Z,63.37
2022-07-29T19:41:17.232Z,63.49
2022-07-29T19:44:21.433Z,63.44
2022-07-29T19:47:25.205Z,63.80
2022-07-29T19:50:29.024Z,64.04
2022-07-29T19:53:33.366Z,64.47
2022-07-29T19:56:40.760Z,64.75
2022-07-29T19:59:46.117Z,65.04
2022-07-29T20:02:49.974Z,65.26
2022-07-29T20:05:53.632Z,65.63
2022-07-29T20:08:58.869Z,66.08
2022-07-29T20:12:04.864Z,66.79
2022-07-29T20:15:10.585Z,66.95
2022-07-29T20:18:20.271Z,67.23
2022-07-29T20:21:23.869Z,67.37
2022-07-29T20:24:27.588Z,67.42
2022-07-29T20:27:32.644Z,67.37
2022-07-29T20:30:38.422Z,67.00
2022-07-29T20:33:42.489Z,66.68
2022-07-29T20:36:46.149Z,66.44
2022-07-29T20:39:49.767Z,66.32
2022-07-29T20:42:55.153Z,66.12
2022-07-29T20:46:00.185Z,65.87
2022-07-29T20:49:03.919Z,65.76
2022-07-29T20:52:08.610Z,65.74
2022-07-29T20:55:12.691Z,65.35
2022-07-29T20:58:19.785Z,65.44
2022-07-29T21:01:23.630Z,65.16
2022-07-29T21:04:32.669Z,65.27
2022-07-29T21:07:36.474Z,65.27
2022-07-29T21:10:40.314Z,65.27
2022-07-29T21:13:45.598Z,65.34
2022-07-29T21:16:50.303Z,65.48
2022-07-29T21:19:55.398Z,65.54
2022-07-29T21:22:59.408Z,65.54
2022-07-29T21:26:06.237Z,65.66
2022-07-29T21:29:13.184Z,65.64
2022-07-29T21:32:27.582Z,65.69
2022-07-29T21:36:06.623Z,65.88
2022-07-29T21:38:57.875Z,66.01
2022-07-29T21:42:02.181Z,66.14
2022-07-29T21:45:08.548Z,66.32
2022-07-29T21:48:15.734Z,66.42
2022-07-29T21:51:19.378Z,66.56
2022-07-29T21:54:23.099Z,66.40
2022-07-29T21:57:27.696Z,66.65
2022-07-29T22:00:34.106Z,66.73
2022-07-29T22:03:37.683Z,66.71
2022-07-29T22:06:41.535Z,66.79
2022-07-29T22:09:45.188Z,66.80
2022-07-29T22:12:51.251Z,66.66
2022-07-29T22:15:56.251Z,66.96
2022-07-29T22:18:59.846Z,66.89
2022-07-29T22:22:03.515Z,66.93
2022-07-29T22:25:09.196Z,67.02
2022-07-29T22:28:12.767Z,67.23
2022-07-29T22:31:17.865Z,67.50
2022-07-29T22:34:21.627Z,67.66
2022-07-29T22:37:25.328Z,67.88
2022-07-29T22:40:30.762Z,68.15
2022-07-29T22:43:36.459Z,68.05
2022-07-29T22:46:41.729Z,68.00
2022-07-29T22:49:45.526Z,68.11
2022-07-29T22:52:49.164Z,68.16
2022-07-29T22:55:52.794Z,68.28
2022-07-29T22:58:56.499Z,68.36
2022-07-29T23:02:01.621Z,68.44
2022-07-29T23:05:05.763Z,68.62
2022-07-29T23:08:10.395Z,68.70
2022-07-29T23:11:14.231Z,68.78
2022-07-29T23:14:17.931Z,69.13
2022-07-29T23:17:23.055Z,69.43
2022-07-29T23:20:27.020Z,69.54
2022-07-29T23:23:32.338Z,69.86
2022-07-29T23:26:36.936Z,69.96
2022-07-29T23:29:40.562Z,70.01
2022-07-29T23:32:45.611Z,70.16
2022-07-29T23:35:49.308Z,70.13
2022-07-29T23:38:54.963Z,70.08
2022-07-29T23:41:58.544Z,70.38
2022-07-29T23:45:02.318Z,70.33
2022-07-29T23:48:08.090Z,70.34
2022-07-29T23:51:11.715Z,70.45
2022-07-29T23:54:15.337Z,70.45
2022-07-29T23:57:19.254Z,70.59
